Time;durP1;ratioP1;P1;durP2;ratioP2;P2;SDS_P1;SDS_P2;PMS_P1;PMS_P2;Temp;Humidity;BMP_temperature;BMP_pressure;BME280_temperature;BME280_humidity;BME280_pressure;Samples;Min_cycle;Max_cycle;Signal;HPM_P1;HPM_P2
2024/04/12 00:01:44;;;;;;;0.10;0.10;;;14.30;77.30;;;;;;5479305;26;19995;-76
2024/04/12 00:04:15;;;;;;;0.10;0.10;;;14.30;77.30;;;;;;5458555;26;20034;-76
2024/04/12 00:06:52;;;;;;;0.10;0.10;;;14.30;77.50;;;;;;5459190;26;20010;-76
2024/04/12 00:09:18;;;;;;;0.10;0.10;;;14.30;77.40;;;;;;5424311;26;20014;-76
2024/04/12 00:11:54;;;;;;;0.00;0.00;;;14.20;77.50;;;;;;5429041;26;19999;-76
2024/04/12 00:14:22;;;;;;;0.00;0.00;;;14.20;77.80;;;;;;5458970;26;20014;-76
2024/04/12 00:16:52;;;;;;;0.00;0.00;;;14.20;77.80;;;;;;5458258;26;20005;-76
2024/04/12 00:19:18;;;;;;;0.10;0.10;;;14.20;77.70;;;;;;5455379;26;19998;-76
2024/04/12 00:21:52;;;;;;;0.10;0.10;;;14.10;77.70;;;;;;5429251;26;20018;-77
2024/04/12 00:24:23;;;;;;;0.10;0.10;;;14.10;77.70;;;;;;5422498;26;20327;-76
2024/04/12 00:26:49;;;;;;;0.08;0.08;;;14.10;77.60;;;;;;5421895;26;20004;-76
2024/04/12 00:29:31;;;;;;;0.00;0.00;;;14.10;77.70;;;;;;5456966;26;20009;-76
2024/04/12 00:32:03;;;;;;;0.00;0.00;;;14.10;77.70;;;;;;5422673;26;20359;-76
2024/04/12 00:34:39;;;;;;;0.00;0.00;;;14.10;77.70;;;;;;5422179;26;20334;-76
2024/04/12 00:37:07;;;;;;;0.00;0.00;;;14.10;77.40;;;;;;5448891;26;20436;-76
2024/04/12 00:39:35;;;;;;;0.00;0.00;;;14.00;77.70;;;;;;5456817;26;20227;-76
2024/04/12 00:42:07;;;;;;;0.00;0.00;;;14.00;77.90;;;;;;5458355;26;20564;-76
2024/04/12 00:44:35;;;;;;;0.10;0.10;;;14.00;78.00;;;;;;5458190;26;20075;-76
2024/04/12 00:47:04;;;;;;;0.10;0.10;;;14.00;77.90;;;;;;5424940;26;20426;-76
2024/04/12 00:49:30;;;;;;;0.10;0.10;;;13.90;77.90;;;;;;5421986;26;20005;-76
2024/04/12 00:52:03;;;;;;;0.00;0.00;;;13.90;77.90;;;;;;5444223;26;20427;-76
2024/04/12 00:54:29;;;;;;;0.00;0.00;;;13.80;78.00;;;;;;5457589;26;20002;-76
2024/04/12 00:56:58;;;;;;;0.10;0.10;;;13.80;77.80;;;;;;5457465;26;19995;-76
2024/04/12 00:59:24;;;;;;;0.00;0.00;;;13.80;77.90;;;;;;5459924;26;19998;-77
2024/04/12 01:01:52;;;;;;;0.00;0.00;;;13.80;77.90;;;;;;5493477;26;20330;-76
2024/04/12 01:04:20;;;;;;;0.00;0.00;;;13.70;78.00;;;;;;5455810;26;20074;-76
2024/04/12 01:06:47;;;;;;;0.10;0.10;;;13.70;78.10;;;;;;5419851;26;20011;-76
2024/04/12 01:09:13;;;;;;;0.00;0.00;;;13.70;78.20;;;;;;5425976;26;20039;-76
2024/04/12 01:11:39;;;;;;;0.00;0.00;;;13.60;78.30;;;;;;5456884;26;19998;-76
2024/04/12 01:14:05;;;;;;;0.00;0.00;;;13.70;78.30;;;;;;5458026;26;20329;-76
2024/04/12 01:16:31;;;;;;;0.10;0.10;;;13.60;78.30;;;;;;5456028;26;19994;-76
2024/04/12 01:18:57;;;;;;;0.00;0.00;;;13.60;78.20;;;;;;5456274;26;20396;-76
2024/04/12 01:21:26;;;;;;;0.10;0.10;;;13.50;78.30;;;;;;5456572;26;19998;-76
2024/04/12 01:23:55;;;;;;;0.10;0.10;;;13.50;78.40;;;;;;5457203;26;19999;-77
2024/04/12 01:26:23;;;;;;;0.10;0.10;;;13.50;78.60;;;;;;5456330;26;20013;-76
2024/04/12 01:28:51;;;;;;;0.10;0.10;;;13.60;78.30;;;;;;5456933;26;20010;-76
2024/04/12 01:31:17;;;;;;;0.00;0.00;;;13.60;78.20;;;;;;5486555;26;20074;-76
2024/04/12 01:33:43;;;;;;;0.10;0.10;;;13.50;78.20;;;;;;5446116;26;20045;-76
2024/04/12 01:36:11;;;;;;;0.00;0.00;;;13.60;78.10;;;;;;5421637;26;20027;-76
2024/04/12 01:38:38;;;;;;;0.00;0.00;;;13.40;78.30;;;;;;5420004;26;20007;-76
2024/04/12 01:41:08;;;;;;;0.00;0.00;;;13.30;78.60;;;;;;5444694;26;20009;-76
2024/04/12 01:43:38;;;;;;;0.05;0.05;;;13.30;78.60;;;;;;5455883;26;20210;-76
2024/04/12 01:46:10;;;;;;;0.00;0.00;;;13.40;78.60;;;;;;5457146;26;19995;-77
2024/04/12 01:48:36;;;;;;;0.10;0.10;;;13.30;78.60;;;;;;5454863;26;20027;-76
2024/04/12 01:51:05;;;;;;;0.10;0.10;;;13.30;78.80;;;;;;5456966;26;20031;-76
2024/04/12 01:53:38;;;;;;;0.00;0.00;;;13.30;78.40;;;;;;5456998;26;20002;-76
2024/04/12 01:56:04;;;;;;;0.00;0.00;;;13.30;78.30;;;;;;5456699;26;20005;-76
2024/04/12 01:58:33;;;;;;;0.00;0.00;;;13.20;78.50;;;;;;5456608;26;19995;-76
2024/04/12 02:01:02;;;;;;;0.10;0.10;;;13.20;78.60;;;;;;5481389;26;20350;-76
2024/04/12 02:03:30;;;;;;;0.00;0.00;;;13.20;78.60;;;;;;5474807;26;20002;-76
2024/04/12 02:05:56;;;;;;;0.00;0.00;;;13.20;78.60;;;;;;5456652;26;20003;-76
2024/04/12 02:08:24;;;;;;;0.00;0.00;;;13.20;78.70;;;;;;5444991;26;20014;-76
2024/04/12 02:10:50;;;;;;;0.00;0.00;;;13.20;78.80;;;;;;5419271;26;20010;-76
2024/04/12 02:13:22;;;;;;;0.10;0.10;;;13.10;79.10;;;;;;5421172;26;20000;-76
2024/04/12 02:15:52;;;;;;;0.00;0.00;;;13.10;79.20;;;;;;5446627;26;20099;-76
2024/04/12 02:18:21;;;;;;;0.00;0.00;;;13.10;79.20;;;;;;5456331;26;20002;-76
2024/04/12 02:20:52;;;;;;;0.00;0.00;;;13.10;78.90;;;;;;5457028;26;19999;-77
2024/04/12 02:23:21;;;;;;;0.10;0.10;;;13.00;78.80;;;;;;5443301;26;20000;-76
2024/04/12 02:25:49;;;;;;;0.10;0.10;;;13.00;79.00;;;;;;5420338;26;20033;-76
2024/04/12 02:28:17;;;;;;;0.08;0.08;;;13.00;79.00;;;;;;5420554;26;20000;-76
2024/04/12 02:30:45;;;;;;;0.00;0.00;;;12.90;79.00;;;;;;5469707;26;20009;-76
2024/04/12 02:33:17;;;;;;;0.00;0.00;;;12.90;79.20;;;;;;5491251;26;20433;-76
2024/04/12 02:35:47;;;;;;;0.10;0.10;;;12.90;79.10;;;;;;5493121;26;20489;-76
2024/04/12 02:38:16;;;;;;;0.10;0.10;;;13.00;79.00;;;;;;5493312;26;19998;-76
2024/04/12 02:40:45;;;;;;;0.00;0.00;;;13.00;78.90;;;;;;5453606;26;20013;-76
2024/04/12 02:43:16;;;;;;;0.10;0.10;;;12.90;78.90;;;;;;5454805;26;20014;-76
2024/04/12 02:45:48;;;;;;;0.03;0.03;;;12.90;78.90;;;;;;5452948;26;19999;-76
2024/04/12 02:48:16;;;;;;;0.00;0.00;;;12.90;78.80;;;;;;5456119;26;20323;-76
2024/04/12 02:51:04;;;;;;;0.05;0.05;;;12.90;78.80;;;;;;5456909;26;20005;-77
2024/04/12 02:53:30;;;;;;;0.10;0.10;;;12.90;78.90;;;;;;5453399;26;20013;-76
2024/04/12 02:56:09;;;;;;;0.00;0.00;;;12.80;79.10;;;;;;5454322;26;20019;-76
2024/04/12 02:58:39;;;;;;;0.10;0.10;;;12.80;79.20;;;;;;5447038;26;20007;-76
2024/04/12 03:01:11;;;;;;;0.00;0.00;;;12.80;79.30;;;;;;5474705;26;20003;-76
2024/04/12 03:03:45;;;;;;;0.10;0.10;;;12.80;79.20;;;;;;5472008;26;20341;-76
2024/04/12 03:06:23;;;;;;;0.10;0.10;;;12.70;79.30;;;;;;5449319;26;19999;-76
2024/04/12 03:08:51;;;;;;;0.05;0.05;;;12.70;79.30;;;;;;5420117;26;20450;-76
2024/04/12 03:11:22;;;;;;;0.10;0.10;;;12.60;79.50;;;;;;5434345;26;20453;-76
2024/04/12 03:13:58;;;;;;;0.10;0.10;;;12.60;79.70;;;;;;5453407;26;20461;-76
2024/04/12 03:16:24;;;;;;;0.00;0.00;;;12.50;80.10;;;;;;5454833;26;20014;-76
2024/04/12 03:18:51;;;;;;;0.10;0.10;;;12.50;80.10;;;;;;5432043;26;20000;-76
2024/04/12 03:21:21;;;;;;;0.10;0.10;;;12.50;80.10;;;;;;5419865;26;20070;-76
2024/04/12 03:23:48;;;;;;;0.10;0.10;;;12.50;80.20;;;;;;5419179;26;20013;-76
2024/04/12 03:26:15;;;;;;;0.00;0.00;;;12.50;80.00;;;;;;5420490;26;20450;-76
2024/04/12 03:28:41;;;;;;;0.10;0.10;;;12.50;79.90;;;;;;5419374;26;20006;-76
2024/04/12 03:31:11;;;;;;;0.10;0.10;;;12.50;79.90;;;;;;5475404;26;19994;-76
2024/04/12 03:33:44;;;;;;;0.10;0.10;;;12.60;79.50;;;;;;5465812;26;20011;-77
2024/04/12 03:36:26;;;;;;;0.10;0.10;;;12.50;79.80;;;;;;5448166;26;20011;-77
2024/04/12 03:41:46;;;;;;;0.00;0.00;;;12.40;79.90;;;;;;5419439;26;20015;-76
2024/04/12 03:44:18;;;;;;;0.10;0.10;;;12.40;79.90;;;;;;5417343;26;20084;-76
2024/04/12 03:46:49;;;;;;;0.00;0.00;;;12.40;79.90;;;;;;5466378;26;20071;-76
2024/04/12 03:49:20;;;;;;;0.00;0.00;;;12.40;79.80;;;;;;5454451;26;20321;-76
2024/04/12 03:51:47;;;;;;;0.05;0.05;;;12.30;79.90;;;;;;5454561;26;20405;-76
2024/04/12 03:54:21;;;;;;;0.10;0.10;;;12.30;80.20;;;;;;5456838;26;20079;-76
2024/04/12 03:56:50;;;;;;;0.10;0.10;;;12.20;80.50;;;;;;5421358;26;19999;-76
2024/04/12 03:59:17;;;;;;;0.03;0.03;;;12.20;80.60;;;;;;5423149;26;20018;-76
2024/04/12 04:01:46;;;;;;;0.10;0.10;;;12.20;80.50;;;;;;5454972;26;19996;-76
2024/04/12 04:04:17;;;;;;;0.10;0.10;;;12.20;80.50;;;;;;5447349;26;20013;-76
2024/04/12 04:06:50;;;;;;;0.00;0.00;;;12.20;80.50;;;;;;5458184;26;20002;-77
2024/04/12 04:09:19;;;;;;;0.10;0.10;;;12.20;80.60;;;;;;5458852;26;19998;-76
2024/04/12 04:11:46;;;;;;;0.10;0.10;;;12.10;80.70;;;;;;5457318;26;20509;-76
2024/04/12 04:14:13;;;;;;;0.10;0.10;;;12.10;80.50;;;;;;5458848;26;19999;-76
2024/04/12 04:16:42;;;;;;;0.10;0.10;;;12.00;80.80;;;;;;5457332;26;20010;-76
2024/04/12 04:19:12;;;;;;;0.00;0.00;;;12.00;80.90;;;;;;5457721;26;20027;-76
2024/04/12 04:21:41;;;;;;;0.10;0.10;;;11.90;80.90;;;;;;5456024;26;20011;-76
2024/04/12 04:24:10;;;;;;;0.03;0.03;;;11.90;81.10;;;;;;5458914;26;20035;-77
2024/04/12 04:26:37;;;;;;;0.00;0.00;;;11.90;81.20;;;;;;5457907;26;20000;-76
2024/04/12 04:29:11;;;;;;;0.05;0.05;;;11.90;81.20;;;;;;5447263;26;20007;-76
2024/04/12 04:31:52;;;;;;;0.10;0.10;;;11.90;81.20;;;;;;5461314;26;19998;-76
2024/04/12 04:34:19;;;;;;;0.10;0.10;;;12.00;81.00;;;;;;5450598;26;19999;-76
2024/04/12 04:36:49;;;;;;;0.00;0.00;;;11.90;80.30;;;;;;5457297;26;20341;-76
2024/04/12 04:39:21;;;;;;;0.00;0.00;;;11.90;80.20;;;;;;5458511;26;20350;-76
2024/04/12 04:41:48;;;;;;;0.10;0.10;;;11.80;80.40;;;;;;5458245;26;20035;-77
2024/04/12 04:44:17;;;;;;;0.10;0.10;;;11.80;80.40;;;;;;5449501;26;20007;-77
2024/04/12 04:46:46;;;;;;;0.10;0.10;;;11.70;80.40;;;;;;5420443;26;20044;-76
2024/04/12 04:49:16;;;;;;;0.10;0.10;;;11.70;80.60;;;;;;5433296;26;19999;-76
2024/04/12 04:51:42;;;;;;;0.00;0.00;;;11.80;80.90;;;;;;5457738;26;20356;-77
2024/04/12 04:54:11;;;;;;;0.00;0.00;;;11.70;81.10;;;;;;5457572;26;20010;-77
2024/04/12 04:56:40;;;;;;;0.10;0.10;;;11.70;81.30;;;;;;5449586;26;20007;-77
2024/04/12 04:59:08;;;;;;;0.00;0.00;;;11.70;81.10;;;;;;5421798;26;19999;-78
2024/04/12 05:01:36;;;;;;;0.10;0.10;;;11.80;81.00;;;;;;5466217;26;20034;-76
2024/04/12 05:04:03;;;;;;;0.10;0.10;;;11.80;80.60;;;;;;5456349;26;20010;-74
2024/04/12 05:06:29;;;;;;;0.10;0.10;;;11.70;80.50;;;;;;5456790;26;19995;-74
2024/04/12 05:08:56;;;;;;;0.10;0.10;;;11.70;80.20;;;;;;5455958;26;19999;-74
2024/04/12 05:11:24;;;;;;;0.10;0.10;;;11.60;80.20;;;;;;5457041;26;20435;-74
2024/04/12 05:13:55;;;;;;;0.10;0.10;;;11.60;80.50;;;;;;5456919;26;20003;-73
2024/04/12 05:16:22;;;;;;;0.10;0.10;;;11.60;80.70;;;;;;5457087;26;20013;-73
2024/04/12 05:18:48;;;;;;;0.00;0.00;;;11.60;80.80;;;;;;5426361;26;20066;-74
2024/04/12 05:21:15;;;;;;;0.10;0.10;;;11.70;80.70;;;;;;5419813;26;20481;-75
2024/04/12 05:23:41;;;;;;;0.10;0.10;;;11.70;80.70;;;;;;5422397;26;20000;-74
2024/04/12 05:26:09;;;;;;;0.10;0.10;;;11.60;80.40;;;;;;5420886;26;20042;-73
2024/04/12 05:28:35;;;;;;;0.10;0.10;;;11.70;80.50;;;;;;5434366;26;20003;-73
2024/04/12 05:31:02;;;;;;;0.00;0.00;;;11.60;80.50;;;;;;5455161;26;19999;-73
2024/04/12 05:33:29;;;;;;;0.10;0.10;;;11.60;80.70;;;;;;5443766;26;20408;-74
2024/04/12 05:35:56;;;;;;;0.10;0.10;;;11.60;80.80;;;;;;5451679;26;20013;-74
2024/04/12 05:38:23;;;;;;;0.10;0.10;;;11.50;81.00;;;;;;5440751;26;20007;-73
2024/04/12 05:40:53;;;;;;;0.00;0.00;;;11.50;81.30;;;;;;5448823;26;20478;-74
2024/04/12 05:43:21;;;;;;;0.10;0.10;;;11.50;81.10;;;;;;5421235;26;20000;-73
2024/04/12 05:45:49;;;;;;;0.10;0.10;;;11.60;81.10;;;;;;5431851;26;19995;-74
2024/04/12 05:48:16;;;;;;;0.10;0.10;;;11.50;80.90;;;;;;5455305;26;20035;-74
2024/04/12 05:50:46;;;;;;;0.10;0.10;;;11.60;80.90;;;;;;5451826;26;20085;-77
2024/04/12 05:53:12;;;;;;;0.10;0.10;;;11.70;80.50;;;;;;5452489;26;19998;-73
2024/04/12 05:55:44;;;;;;;0.10;0.10;;;11.70;80.30;;;;;;5451363;26;20042;-75
2024/04/12 05:58:14;;;;;;;0.00;0.00;;;11.60;80.60;;;;;;5453648;26;20038;-74
2024/04/12 06:00:43;;;;;;;0.10;0.10;;;11.70;80.60;;;;;;5469532;26;20127;-73
2024/04/12 06:03:14;;;;;;;0.10;0.10;;;11.70;80.60;;;;;;5956314;20;19998;-73
2024/04/12 06:05:55;;;;;;;0.05;0.05;;;11.60;80.80;;;;;;5423782;26;19995;-73
2024/04/12 06:08:22;;;;;;;0.10;0.10;;;11.70;80.70;;;;;;5437103;26;20018;-72
2024/04/12 06:10:50;;;;;;;0.10;0.10;;;11.70;80.70;;;;;;5426117;26;19995;-72
2024/04/12 06:13:17;;;;;;;0.10;0.10;;;11.60;80.90;;;;;;5451572;26;20083;-72
2024/04/12 06:15:43;;;;;;;0.10;0.10;;;11.60;80.80;;;;;;5447665;26;20006;-72
2024/04/12 06:18:10;;;;;;;0.10;0.10;;;11.60;80.90;;;;;;5452935;26;20534;-72
2024/04/12 06:20:36;;;;;;;0.10;0.10;;;11.60;80.90;;;;;;5452272;26;20003;-72
2024/04/12 06:23:06;;;;;;;0.00;0.00;;;11.50;80.90;;;;;;5434831;26;20075;-72
2024/04/12 06:25:43;;;;;;;0.10;0.10;;;11.40;81.20;;;;;;5454954;26;20006;-72
2024/04/12 06:28:11;;;;;;;0.10;0.10;;;11.50;81.20;;;;;;5446102;26;20063;-72
2024/04/12 06:30:49;;;;;;;0.10;0.10;;;11.50;81.20;;;;;;5453414;26;20003;-72
2024/04/12 06:33:22;;;;;;;0.10;0.10;;;11.40;81.20;;;;;;5442007;26;20009;-72
2024/04/12 06:36:11;;;;;;;0.10;0.10;;;11.60;81.30;;;;;;5447890;26;19999;-72
2024/04/12 06:38:38;;;;;;;0.10;0.10;;;11.60;81.20;;;;;;5453777;26;20009;-71
2024/04/12 06:41:10;;;;;;;0.10;0.10;;;11.50;81.30;;;;;;5459324;26;20023;-72
2024/04/12 06:43:37;;;;;;;0.10;0.10;;;11.50;81.40;;;;;;5452927;26;20010;-72
2024/04/12 06:46:09;;;;;;;0.10;0.10;;;11.60;81.30;;;;;;5451840;26;20034;-72
2024/04/12 06:48:40;;;;;;;0.10;0.10;;;11.80;81.20;;;;;;5454018;26;19994;-72
2024/04/12 06:51:11;;;;;;;0.10;0.10;;;11.80;81.20;;;;;;5455327;26;20010;-72
2024/04/12 06:53:49;;;;;;;0.03;0.03;;;11.80;81.20;;;;;;5454532;26;20452;-72
2024/04/12 06:56:17;;;;;;;0.10;0.10;;;11.90;81.30;;;;;;5429618;26;19999;-72
2024/04/12 06:58:47;;;;;;;0.10;0.10;;;12.00;81.20;;;;;;5417154;26;19995;-71
2024/04/12 07:01:13;;;;;;;0.10;0.10;;;12.00;81.20;;;;;;5448714;26;19995;-72
2024/04/12 07:03:40;;;;;;;0.10;0.10;;;12.20;81.10;;;;;;5459473;26;19999;-72
2024/04/12 07:06:07;;;;;;;0.10;0.10;;;12.20;81.00;;;;;;5437816;26;19995;-72
2024/04/12 07:08:33;;;;;;;0.10;0.10;;;12.30;81.20;;;;;;5450114;26;20113;-72
2024/04/12 07:11:06;;;;;;;0.10;0.10;;;12.30;81.50;;;;;;5429328;26;19996;-72
2024/04/12 07:13:33;;;;;;;0.10;0.10;;;12.50;81.50;;;;;;5445345;26;20365;-72
2024/04/12 07:16:01;;;;;;;0.10;0.10;;;12.70;81.20;;;;;;5439561;26;20433;-72
2024/04/12 07:18:29;;;;;;;0.10;0.10;;;12.80;81.50;;;;;;5480446;26;19995;-72
2024/04/12 07:21:16;;;;;;;0.10;0.10;;;13.00;80.90;;;;;;5451298;26;20010;-72
2024/04/12 07:23:48;;;;;;;0.10;0.10;;;13.20;80.00;;;;;;5451265;26;19999;-72
2024/04/12 07:26:24;;;;;;;0.10;0.10;;;13.40;79.40;;;;;;5453785;26;20017;-71
2024/04/12 07:28:57;;;;;;;0.10;0.10;;;13.50;79.00;;;;;;5455429;26;20023;-72
2024/04/12 07:31:24;;;;;;;0.20;0.20;;;13.80;78.60;;;;;;5438111;26;20352;-72
2024/04/12 07:33:51;;;;;;;0.20;0.20;;;14.20;77.70;;;;;;5460770;26;20002;-72
2024/04/12 07:36:20;;;;;;;0.30;0.30;;;14.70;76.50;;;;;;5455396;26;20079;-72
2024/04/12 07:38:49;;;;;;;0.20;0.20;;;15.40;75.00;;;;;;5454950;26;19995;-72
2024/04/12 07:41:15;;;;;;;0.10;0.10;;;16.30;72.60;;;;;;5455225;26;20099;-72
2024/04/12 07:43:43;;;;;;;0.20;0.20;;;16.70;70.70;;;;;;5454332;26;20011;-72
2024/04/12 07:46:14;;;;;;;0.30;0.30;;;16.90;69.50;;;;;;5447682;26;20071;-72
2024/04/12 07:48:48;;;;;;;0.30;0.30;;;17.80;67.50;;;;;;5484209;26;20015;-72
2024/04/12 07:51:20;;;;;;;0.30;0.30;;;18.80;65.10;;;;;;5455252;26;20448;-72
2024/04/12 07:53:47;;;;;;;0.50;0.50;;;20.30;62.30;;;;;;5446303;26;19994;-73
2024/04/12 07:56:16;;;;;;;0.45;0.45;;;21.60;57.80;;;;;;5454821;26;19999;-73
2024/04/12 07:58:42;;;;;;;0.30;0.30;;;22.80;53.60;;;;;;5455068;26;20005;-73
2024/04/12 08:01:15;;;;;;;0.40;0.40;;;23.40;52.40;;;;;;5453925;26;20002;-73
2024/04/12 08:03:41;;;;;;;;;;;23.80;50.30;;;;;;5438097;26;20003;-73
2024/04/12 08:06:18;;;;;;;0.40;0.40;;;24.40;48.20;;;;;;5452999;26;19931;-73
2024/04/12 08:08:45;;;;;;;0.50;0.50;;;25.30;46.20;;;;;;5468839;26;20043;-73
2024/04/12 08:11:41;;;;;;;0.50;0.50;;;26.00;44.50;;;;;;5473187;26;20018;-73
2024/04/12 08:14:07;;;;;;;0.60;0.60;;;26.40;44.50;;;;;;5451389;26;20075;-73
2024/04/12 08:16:37;;;;;;;0.20;0.20;;;26.50;43.60;;;;;;5451830;26;20009;-73
2024/04/12 08:19:11;;;;;;;0.50;0.50;;;26.80;43.40;;;;;;5452656;26;20014;-73
2024/04/12 08:21:37;;;;;;;0.50;0.50;;;26.90;42.70;;;;;;5454142;26;20006;-73
2024/04/12 08:24:09;;;;;;;0.30;0.30;;;26.80;42.50;;;;;;5445289;26;20096;-73
2024/04/12 08:26:38;;;;;;;0.40;0.40;;;26.60;42.50;;;;;;5454798;26;19999;-72
2024/04/12 08:29:11;;;;;;;0.70;0.70;;;26.20;43.50;;;;;;5453333;26;20009;-73
2024/04/12 08:31:36;;;;;;;0.50;0.50;;;26.00;43.20;;;;;;5439125;26;20003;-73
2024/04/12 08:34:07;;;;;;;0.40;0.40;;;26.90;43.20;;;;;;5455547;26;20336;-73
2024/04/12 08:36:33;;;;;;;0.60;0.60;;;27.20;42.70;;;;;;5452318;26;20010;-73
2024/04/12 08:39:25;;;;;;;0.40;0.40;;;27.80;42.60;;;;;;5448872;26;20006;-73
2024/04/12 08:41:59;;;;;;;0.35;0.35;;;27.70;41.90;;;;;;5441261;26;20004;-73
2024/04/12 08:44:26;;;;;;;0.30;0.30;;;27.30;42.20;;;;;;5445831;26;19999;-73
2024/04/12 08:46:53;;;;;;;0.30;0.30;;;26.90;42.60;;;;;;5448855;26;20002;-73
2024/04/12 08:49:20;;;;;;;0.30;0.30;;;26.90;43.60;;;;;;5450380;26;19995;-73
2024/04/12 08:51:53;;;;;;;0.30;0.30;;;26.70;43.90;;;;;;5446957;26;20006;-73
2024/04/12 08:54:20;;;;;;;0.50;0.50;;;26.50;43.90;;;;;;5416848;26;20076;-73
2024/04/12 08:56:47;;;;;;;0.60;0.60;;;26.30;45.30;;;;;;5422046;26;20116;-73
2024/04/12 08:59:17;;;;;;;0.60;0.60;;;26.90;44.50;;;;;;5421654;26;20018;-72
2024/04/12 09:01:44;;;;;;;0.43;0.43;;;27.60;43.70;;;;;;5454108;26;20003;-74
2024/04/12 09:04:14;;;;;;;0.50;0.50;;;27.50;43.00;;;;;;5462883;26;20023;-73
2024/04/12 09:06:41;;;;;;;0.50;0.50;;;27.10;43.30;;;;;;5452390;26;19994;-73
2024/04/12 09:09:13;;;;;;;0.50;0.50;;;27.10;44.50;;;;;;5453876;26;20075;-73
2024/04/12 09:11:39;;;;;;;0.50;0.50;;;27.10;44.30;;;;;;5440633;26;20011;-73
2024/04/12 09:14:19;;;;;;;0.60;0.60;;;27.10;44.90;;;;;;5435876;26;19999;-73
2024/04/12 09:16:48;;;;;;;0.50;0.50;;;27.60;44.30;;;;;;5453934;26;20682;-73
2024/04/12 09:19:15;;;;;;;0.50;0.50;;;27.70;43.90;;;;;;5453751;26;19999;-73
2024/04/12 09:22:02;;;;;;;0.60;0.60;;;27.40;43.90;;;;;;5438008;26;20010;-73
2024/04/12 09:24:31;;;;;;;0.50;0.50;;;27.80;43.80;;;;;;5449404;26;20007;-73
2024/04/12 09:27:05;;;;;;;0.82;0.82;;;27.80;43.80;;;;;;5452939;26;20643;-73
2024/04/12 09:29:32;;;;;;;0.60;0.60;;;27.70;44.40;;;;;;5451826;26;20033;-73
2024/04/12 09:34:55;;;;;;;0.80;0.80;;;28.00;43.30;;;;;;5455049;26;20389;-73
2024/04/12 09:37:38;;;;;;;0.90;0.90;;;28.20;42.70;;;;;;5452439;26;20003;-73
2024/04/12 09:40:16;;;;;;;0.80;0.80;;;28.70;42.40;;;;;;5452519;26;20022;-73
2024/04/12 09:45:28;;;;;;;1.00;1.00;;;29.70;40.50;;;;;;5448090;26;20071;-73
2024/04/12 10:37:53;;;;;;;0.00;0.00;;;24.40;51.30;;;;;;5452574;26;20340;-71
2024/04/12 10:40:21;;;;;;;0.00;0.00;;;23.90;52.70;;;;;;5451663;26;19995;-71
2024/04/12 10:42:52;;;;;;;0.00;0.00;;;23.70;52.30;;;;;;5452709;26;20470;-72
2024/04/12 10:45:18;;;;;;;0.10;0.10;;;23.50;54.40;;;;;;5414997;26;19996;-71
2024/04/12 10:47:47;;;;;;;0.00;0.00;;;23.20;54.70;;;;;;5450844;26;19999;-71
2024/04/12 10:50:13;;;;;;;0.00;0.00;;;23.10;55.20;;;;;;5444520;26;20515;-72
2024/04/12 10:52:43;;;;;;;0.00;0.00;;;23.10;55.70;;;;;;5452754;26;19995;-71
2024/04/12 10:55:10;;;;;;;0.00;0.00;;;22.90;55.60;;;;;;5452020;26;20444;-72
2024/04/12 10:57:42;;;;;;;0.03;0.03;;;22.80;56.00;;;;;;5450557;26;19998;-72
2024/04/12 11:00:14;;;;;;;0.00;0.00;;;22.80;56.10;;;;;;5451041;26;20052;-72
2024/04/12 11:02:47;;;;;;;0.00;0.00;;;22.80;57.00;;;;;;5443605;26;20075;-72
2024/04/12 11:07:51;;;;;;;0.00;0.00;;;22.80;57.00;;;;;;5442655;26;19996;-72
2024/04/12 11:10:25;;;;;;;0.05;0.05;;;22.70;57.20;;;;;;5449959;26;20136;-71
2024/04/12 11:12:59;;;;;;;0.00;0.00;;;22.60;57.60;;;;;;5451791;26;20015;-72
2024/04/12 11:32:00;;;;;;;0.10;0.10;;;22.40;58.50;;;;;;5445081;26;20014;-71
2024/04/12 11:34:30;;;;;;;0.00;0.00;;;22.50;58.00;;;;;;5476003;26;19998;-72
2024/04/12 11:36:58;;;;;;;0.00;0.00;;;22.50;56.90;;;;;;5453794;26;20003;-71
2024/04/12 11:39:26;;;;;;;0.00;0.00;;;22.40;57.40;;;;;;5452252;26;20067;-72
2024/04/12 11:41:55;;;;;;;0.00;0.00;;;22.40;57.40;;;;;;5444472;26;20019;-71
2024/04/12 11:44:21;;;;;;;0.00;0.00;;;22.40;58.20;;;;;;5434108;26;20072;-71
2024/04/12 11:46:54;;;;;;;0.10;0.10;;;22.40;58.00;;;;;;5455711;26;19998;-72
2024/04/12 11:49:26;;;;;;;0.00;0.00;;;22.30;58.90;;;;;;5449828;26;20003;-71
2024/04/12 11:52:01;;;;;;;0.05;0.05;;;22.50;59.20;;;;;;5453694;26;20448;-71
2024/04/12 11:54:31;;;;;;;0.00;0.00;;;22.60;58.50;;;;;;5454734;26;20036;-72
2024/04/12 11:56:59;;;;;;;0.00;0.00;;;22.70;59.10;;;;;;5454135;26;20535;-72
2024/04/12 11:59:27;;;;;;;0.00;0.00;;;22.70;59.40;;;;;;5451614;26;20006;-72
2024/04/12 12:01:58;;;;;;;0.00;0.00;;;22.80;59.90;;;;;;5455517;26;20061;-71
2024/04/12 12:04:27;;;;;;;0.00;0.00;;;22.80;58.00;;;;;;5474335;26;20620;-71
2024/04/12 12:06:54;;;;;;;0.00;0.00;;;22.80;58.10;;;;;;5451022;26;19998;-71
2024/04/12 12:09:20;;;;;;;0.10;0.10;;;22.80;58.00;;;;;;5457512;26;19997;-71
2024/04/12 12:11:49;;;;;;;0.00;0.00;;;22.80;57.10;;;;;;5431138;26;20035;-71
2024/04/12 12:14:16;;;;;;;0.03;0.03;;;22.80;57.30;;;;;;5417655;26;20071;-71
2024/04/12 12:16:41;;;;;;;0.00;0.00;;;22.90;57.30;;;;;;5454635;26;20007;-71
2024/04/12 12:19:07;;;;;;;0.00;0.00;;;22.90;57.30;;;;;;5456108;26;19999;-71
2024/04/12 12:21:33;;;;;;;0.00;0.00;;;22.90;55.50;;;;;;5458061;26;20660;-71
2024/04/12 12:23:59;;;;;;;0.00;0.00;;;22.90;57.20;;;;;;5451679;26;20476;-71
2024/04/12 12:26:25;;;;;;;0.00;0.00;;;22.90;56.90;;;;;;5421908;26;20004;-71
2024/04/12 12:28:51;;;;;;;0.00;0.00;;;23.00;57.10;;;;;;5420786;26;20003;-71
2024/04/12 12:31:18;;;;;;;0.00;0.00;;;23.00;56.60;;;;;;5422028;26;20863;-71
2024/04/12 12:33:45;;;;;;;0.00;0.00;;;22.80;54.80;;;;;;5435883;26;20009;-71
2024/04/12 12:36:11;;;;;;;0.00;0.00;;;22.80;54.70;;;;;;5447637;26;20009;-71
2024/04/12 12:38:41;;;;;;;0.10;0.10;;;22.70;56.40;;;;;;5435999;26;20000;-71
2024/04/12 12:41:07;;;;;;;0.00;0.00;;;22.80;56.60;;;;;;5441867;26;19992;-71
2024/04/12 12:43:32;;;;;;;0.00;0.00;;;22.80;55.00;;;;;;5435851;26;20072;-71
2024/04/12 12:45:58;;;;;;;0.00;0.00;;;22.80;54.70;;;;;;5442341;26;20004;-71
2024/04/12 12:48:27;;;;;;;0.00;0.00;;;22.70;53.40;;;;;;5445915;26;20011;-71
2024/04/12 12:50:57;;;;;;;0.00;0.00;;;22.80;55.40;;;;;;5418153;26;20027;-71
2024/04/12 12:53:26;;;;;;;0.00;0.00;;;22.80;54.80;;;;;;5446886;26;20056;-71
2024/04/12 12:55:53;;;;;;;0.00;0.00;;;22.80;53.20;;;;;;5433928;26;20436;-71
2024/04/12 12:58:24;;;;;;;0.00;0.00;;;22.80;53.00;;;;;;5438080;26;20005;-71
2024/04/12 13:00:50;;;;;;;0.00;0.00;;;22.80;55.30;;;;;;5480682;26;19995;-71
2024/04/12 13:03:25;;;;;;;0.00;0.00;;;23.10;55.00;;;;;;5453862;26;20006;-72
2024/04/12 13:05:52;;;;;;;0.00;0.00;;;23.10;55.20;;;;;;5450726;26;20000;-71
2024/04/12 13:08:20;;;;;;;0.00;0.00;;;23.00;52.30;;;;;;5420460;26;20007;-72
2024/04/12 13:10:48;;;;;;;0.00;0.00;;;22.90;53.70;;;;;;5422143;26;20002;-71
2024/04/12 13:13:23;;;;;;;0.00;0.00;;;22.90;53.60;;;;;;5456038;26;20348;-71
2024/04/12 13:15:56;;;;;;;0.00;0.00;;;22.80;54.20;;;;;;5451383;26;20413;-72
2024/04/12 13:18:22;;;;;;;0.00;0.00;;;22.90;54.60;;;;;;5448632;26;20011;-71
2024/04/12 13:20:50;;;;;;;0.00;0.00;;;22.80;50.90;;;;;;5454182;26;20007;-72
2024/04/12 13:23:19;;;;;;;0.03;0.03;;;22.70;51.90;;;;;;5454500;26;22761;-71
2024/04/12 13:25:45;;;;;;;0.00;0.00;;;22.80;53.30;;;;;;5449821;26;20071;-72
2024/04/12 13:28:14;;;;;;;0.00;0.00;;;22.90;53.50;;;;;;5454358;26;20014;-72
2024/04/12 13:30:40;;;;;;;0.00;0.00;;;23.00;54.30;;;;;;5477627;26;20066;-71
2024/04/12 13:33:08;;;;;;;0.00;0.00;;;23.10;52.60;;;;;;5455069;26;19995;-72
2024/04/12 13:35:40;;;;;;;0.00;0.00;;;23.00;51.80;;;;;;5449915;26;20002;-72
2024/04/12 13:38:12;;;;;;;0.00;0.00;;;23.10;54.30;;;;;;5452868;26;19998;-71
2024/04/12 13:40:50;;;;;;;0.03;0.03;;;23.20;52.00;;;;;;5453806;26;20003;-72
2024/04/12 13:43:16;;;;;;;0.00;0.00;;;23.10;52.50;;;;;;5440544;26;20003;-71
2024/04/12 13:51:20;;;;;;;0.00;0.00;;;23.20;50.70;;;;;;5451660;26;20031;-72
2024/04/12 13:53:50;;;;;;;0.05;0.05;;;23.10;51.00;;;;;;5436621;26;20343;-73
2024/04/12 13:56:25;;;;;;;0.00;0.00;;;23.20;52.10;;;;;;5435381;26;20006;-73
2024/04/12 13:58:58;;;;;;;0.00;0.00;;;23.30;51.60;;;;;;5430077;26;19998;-72
2024/04/12 14:01:24;;;;;;;0.00;0.00;;;23.40;51.30;;;;;;5452134;26;20009;-72
2024/04/12 14:03:54;;;;;;;0.00;0.00;;;23.30;49.60;;;;;;5444656;26;20048;-71
2024/04/12 14:06:23;;;;;;;0.00;0.00;;;23.30;50.40;;;;;;5441231;26;20357;-74
2024/04/12 14:08:53;;;;;;;0.00;0.00;;;23.30;49.90;;;;;;5430940;26;19999;-71
2024/04/12 14:11:19;;;;;;;0.00;0.00;;;23.30;50.90;;;;;;5441110;26;19999;-72
2024/04/12 14:13:46;;;;;;;0.00;0.00;;;23.40;50.00;;;;;;5448125;26;20018;-72
2024/04/12 14:16:13;;;;;;;0.00;0.00;;;23.50;50.80;;;;;;5442869;26;20010;-72
2024/04/12 14:18:39;;;;;;;0.03;0.03;;;23.60;49.80;;;;;;5438304;26;20027;-72
2024/04/12 14:21:07;;;;;;;0.00;0.00;;;23.50;49.40;;;;;;5443247;26;20076;-72
2024/04/12 14:23:33;;;;;;;0.00;0.00;;;23.50;50.30;;;;;;5443737;26;20002;-72